createdAt,value
2022-07-29T00:00:24.479Z,30.46
2022-07-29T00:05:26.578Z,29.99
2022-07-29T00:10:28.724Z,29.24
2022-07-29T00:15:30.721Z,30.14
2022-07-29T00:20:32.847Z,30.16
2022-07-29T00:25:34.925Z,29.14
2022-07-29T00:30:36.903Z,30.04
2022-07-29T00:35:44.812Z,29.73
2022-07-29T00:40:47.492Z,29.63
2022-07-29T00:45:49.465Z,29.04
2022-07-29T00:50:52.439Z,29.83
2022-07-29T00:55:57.644Z,29.63
2022-07-29T01:00:59.935Z,28.92
2022-07-29T01:06:01.957Z,28.38
2022-07-29T01:11:04.312Z,29.44
2022-07-29T01:16:14.857Z,29.61
2022-07-29T01:21:35.269Z,28.52
2022-07-29T01:26:54.222Z,28.64
2022-07-29T01:32:04.213Z,29.40
2022-07-29T01:37:27.687Z,28.40
2022-07-29T01:42:37.280Z,27.93
2022-07-29T01:48:13.449Z,29.43
2022-07-29T01:53:19.439Z,28.23
2022-07-29T01:58:22.052Z,27.63
2022-07-29T02:03:24.487Z,28.60
2022-07-29T02:08:27.336Z,27.79
2022-07-29T02:13:30.155Z,27.74
2022-07-29T02:18:33.258Z,27.62
2022-07-29T02:23:45.207Z,28.06
2022-07-29T02:28:55.647Z,27.22
2022-07-29T02:33:58.540Z,27.66
2022-07-29T02:39:01.969Z,26.93
2022-07-29T02:44:12.477Z,27.52
2022-07-29T02:49:18.393Z,27.31
2022-07-29T02:54:42.522Z,27.74
2022-07-29T02:59:46.868Z,27.11
2022-07-29T03:04:50.421Z,28.08
2022-07-29T03:09:53.582Z,27.67
2022-07-29T03:14:56.998Z,26.93
2022-07-29T03:19:59.918Z,27.41
2022-07-29T03:25:09.925Z,27.41
2022-07-29T03:30:18.434Z,26.64
2022-07-29T03:35:24.978Z,27.15
2022-07-29T03:40:37.102Z,27.67
2022-07-29T03:45:40.536Z,26.77
2022-07-29T03:50:42.954Z,27.26
2022-07-29T03:55:48.599Z,26.41
2022-07-29T04:00:51.356Z,27.34
2022-07-29T04:06:01.580Z,27.05
2022-07-29T04:11:07.566Z,25.90
2022-07-29T04:16:10.300Z,25.49
2022-07-29T04:21:12.588Z,26.82
2022-07-29T04:26:15.332Z,25.54
2022-07-29T04:31:19.351Z,25.11
2022-07-29T04:36:28.373Z,25.54
2022-07-29T04:41:33.148Z,25.42
2022-07-29T04:46:36.675Z,24.84
2022-07-29T04:51:39.083Z,25.72
2022-07-29T04:56:41.065Z,25.43
2022-07-29T05:01:43.174Z,24.87
2022-07-29T05:06:45.305Z,25.12
2022-07-29T05:11:47.446Z,25.01
2022-07-29T05:16:52.177Z,24.73
2022-07-29T05:21:54.381Z,25.60
2022-07-29T05:27:02.442Z,25.69
2022-07-29T05:32:05.094Z,25.12
2022-07-29T05:37:07.120Z,25.17
2022-07-29T05:42:10.878Z,25.93
2022-07-29T05:47:12.801Z,25.27
2022-07-29T05:52:15.145Z,24.89
2022-07-29T05:57:22.085Z,26.42
2022-07-29T06:02:24.144Z,25.56
2022-07-29T06:07:26.091Z,24.72
2022-07-29T06:12:28.054Z,24.71
2022-07-29T06:17:30.043Z,24.84
2022-07-29T06:22:31.981Z,24.73
2022-07-29T06:27:33.887Z,24.51
2022-07-29T06:32:41.356Z,24.81
2022-07-29T06:37:45.105Z,24.78
2022-07-29T06:42:48.602Z,24.76
2022-07-29T06:47:50.989Z,24.79
2022-07-29T06:52:52.957Z,24.87
2022-07-29T06:57:54.835Z,25.07
2022-07-29T07:02:56.931Z,25.13
2022-07-29T07:07:59.077Z,25.27
2022-07-29T07:13:01.811Z,25.34
2022-07-29T07:18:04.784Z,25.44
2022-07-29T07:23:06.863Z,26.36
2022-07-29T07:28:08.974Z,26.76
2022-07-29T07:33:10.944Z,27.27
2022-07-29T07:38:13.113Z,27.18
2022-07-29T07:43:15.026Z,27.38
2022-07-29T07:48:16.998Z,27.30
2022-07-29T07:53:18.904Z,27.39
2022-07-29T07:58:20.906Z,27.61
2022-07-29T08:03:22.895Z,27.69
2022-07-29T08:08:24.960Z,27.87
2022-07-29T08:13:31.333Z,28.12
2022-07-29T08:18:33.569Z,28.30
2022-07-29T08:23:50.575Z,28.35
2022-07-29T08:28:55.098Z,28.55
2022-07-29T08:33:57.518Z,29.09
2022-07-29T08:39:01.309Z,29.40
2022-07-29T08:44:03.229Z,29.88
2022-07-29T08:49:05.235Z,30.83
2022-07-29T08:54:07.886Z,31.78
2022-07-29T08:59:10.723Z,32.15
2022-07-29T09:04:15.484Z,32.67
2022-07-29T09:09:17.968Z,33.25
2022-07-29T09:14:20.012Z,34.10
2022-07-29T09:19:33.101Z,34.71
2022-07-29T09:24:41.850Z,34.93
2022-07-29T09:29:43.832Z,35.70
2022-07-29T09:34:45.723Z,35.73
2022-07-29T09:39:47.767Z,35.98
2022-07-29T09:44:51.486Z,36.01
2022-07-29T09:49:54.731Z,36.92
2022-07-29T09:55:10.018Z,37.11
2022-07-29T10:00:18.956Z,37.18
2022-07-29T10:05:26.135Z,37.48
2022-07-29T10:10:28.887Z,38.21
2022-07-29T10:15:33.338Z,37.90
2022-07-29T10:20:35.978Z,38.17
2022-07-29T10:25:38.080Z,37.98
2022-07-29T10:30:41.143Z,38.47
2022-07-29T10:35:55.013Z,38.87
2022-07-29T10:41:24.327Z,38.60
2022-07-29T10:46:27.549Z,39.17
2022-07-29T10:51:52.149Z,39.50
2022-07-29T10:56:54.154Z,40.07
2022-07-29T11:02:10.890Z,40.24
2022-07-29T11:07:19.529Z,40.26
2022-07-29T11:12:39.829Z,40.05
2022-07-29T11:18:01.432Z,40.87
2022-07-29T11:23:19.562Z,40.32
2022-07-29T11:28:23.218Z,40.55
2022-07-29T11:33:54.100Z,40.16
2022-07-29T11:39:36.981Z,40.03
2022-07-29T11:45:42.082Z,40.16
2022-07-29T11:50:44.712Z,40.33
2022-07-29T11:55:51.398Z,39.99
2022-07-29T12:00:55.531Z,39.66
2022-07-29T12:05:58.069Z,39.24
2022-07-29T12:11:00.972Z,39.07
2022-07-29T12:16:04.358Z,38.38
2022-07-29T12:21:06.370Z,38.39
2022-07-29T12:26:11.053Z,38.21
2022-07-29T12:31:43.096Z,37.81
2022-07-29T12:36:45.721Z,37.75
2022-07-29T12:41:47.720Z,37.38
2022-07-29T12:47:02.514Z,37.09
2022-07-29T12:52:25.152Z,36.85
2022-07-29T12:57:28.372Z,36.99
2022-07-29T13:02:30.390Z,36.74
2022-07-29T13:07:55.415Z,36.56
2022-07-29T13:13:07.390Z,36.34
2022-07-29T13:18:29.343Z,36.39
2022-07-29T13:23:31.316Z,36.59
2022-07-29T13:28:41.061Z,36.50
2022-07-29T13:33:46.306Z,36.25
2022-07-29T13:38:48.053Z,36.32
2022-07-29T13:43:50.184Z,36.19
2022-07-29T13:48:52.564Z,36.23
2022-07-29T13:53:54.528Z,36.25
2022-07-29T13:58:56.695Z,36.34
2022-07-29T14:04:00.294Z,36.19
2022-07-29T14:09:02.582Z,36.26
2022-07-29T14:14:04.580Z,36.08
2022-07-29T14:19:06.387Z,36.11
2022-07-29T14:24:16.203Z,36.37
2022-07-29T14:29:22.809Z,36.23
2022-07-29T14:34:24.606Z,36.19
2022-07-29T14:39:26.547Z,36.20
2022-07-29T14:44:34.109Z,36.03
2022-07-29T14:49:36.234Z,35.99
2022-07-29T14:54:38.190Z,35.96
2022-07-29T14:59:40.401Z,35.99
2022-07-29T15:04:42.352Z,35.98
2022-07-29T15:09:49.936Z,36.11
2022-07-29T15:14:52.172Z,36.15
2022-07-29T15:19:54.042Z,36.22
2022-07-29T15:24:55.896Z,36.06
2022-07-29T15:29:58.167Z,36.08
2022-07-29T15:35:00.161Z,36.23
2022-07-29T15:40:02.080Z,35.95
2022-07-29T15:45:05.284Z,36.17
2022-07-29T15:50:12.977Z,36.08
2022-07-29T15:55:16.443Z,35.92
2022-07-29T16:00:18.562Z,36.05
2022-07-29T16:05:20.591Z,36.18
2022-07-29T16:10:22.299Z,36.06
2022-07-29T16:15:24.378Z,36.10
2022-07-29T16:20:26.341Z,35.89
2022-07-29T16:25:50.268Z,36.16
2022-07-29T16:30:51.441Z,35.96
2022-07-29T16:35:53.293Z,35.91
2022-07-29T16:40:55.196Z,35.97
2022-07-29T16:45:57.179Z,35.95
2022-07-29T16:50:59.156Z,36.11
2022-07-29T16:56:01.496Z,35.95
2022-07-29T17:01:04.057Z,35.96
2022-07-29T17:06:06.047Z,35.80
2022-07-29T17:11:07.969Z,35.66
2022-07-29T17:16:09.960Z,35.58
2022-07-29T17:21:11.726Z,35.52
2022-07-29T17:26:13.767Z,35.64
2022-07-29T17:31:15.625Z,35.27
2022-07-29T17:36:24.481Z,35.15
2022-07-29T17:41:26.843Z,35.18
2022-07-29T17:46:28.959Z,34.93
2022-07-29T17:51:30.934Z,34.98
2022-07-29T17:56:32.939Z,35.02
2022-07-29T18:01:34.814Z,34.90
2022-07-29T18:06:36.934Z,34.85
2022-07-29T18:11:38.649Z,34.81
2022-07-29T18:16:41.315Z,34.60
2022-07-29T18:21:51.848Z,34.48
2022-07-29T18:26:57.198Z,34.38
2022-07-29T18:32:00.036Z,34.41
2022-07-29T18:37:02.147Z,34.39
2022-07-29T18:42:04.050Z,34.16
2022-07-29T18:47:06.102Z,34.01
2022-07-29T18:52:08.480Z,34.10
2022-07-29T18:57:55.276Z,34.13
2022-07-29T19:02:32.527Z,33.74
2022-07-29T19:07:34.633Z,33.53
2022-07-29T19:12:36.623Z,33.48
2022-07-29T19:17:39.037Z,33.28
2022-07-29T19:22:41.294Z,33.04
2022-07-29T19:27:42.980Z,32.92
2022-07-29T19:32:44.799Z,32.81
2022-07-29T19:37:47.016Z,32.67
2022-07-29T19:42:51.695Z,32.49
2022-07-29T19:47:59.063Z,32.45
2022-07-29T19:53:02.830Z,32.17
2022-07-29T19:58:06.131Z,32.12
2022-07-29T20:03:10.799Z,32.12
2022-07-29T20:08:12.823Z,32.00
2022-07-29T20:13:14.985Z,31.91
2022-07-29T20:18:16.807Z,31.79
2022-07-29T20:23:19.436Z,31.67
2022-07-29T20:28:21.481Z,31.65
2022-07-29T20:33:23.442Z,31.57
2022-07-29T20:38:25.307Z,31.61
2022-07-29T20:43:27.855Z,31.55
2022-07-29T20:48:29.750Z,31.39
2022-07-29T20:53:34.865Z,31.26
2022-07-29T20:58:38.444Z,31.09
2022-07-29T21:03:40.646Z,30.99
2022-07-29T21:08:42.801Z,30.94
2022-07-29T21:13:45.734Z,30.87
2022-07-29T21:18:47.702Z,30.79
2022-07-29T21:23:49.697Z,30.75
2022-07-29T21:28:51.655Z,30.73
2022-07-29T21:33:54.254Z,30.53
2022-07-29T21:38:56.817Z,30.53
2022-07-29T21:43:59.540Z,30.63
2022-07-29T21:49:01.592Z,30.51
2022-07-29T21:54:04.233Z,30.33
2022-07-29T21:59:09.801Z,30.23
2022-07-29T22:04:14.686Z,30.35
2022-07-29T22:09:16.727Z,30.17
2022-07-29T22:14:18.829Z,30.20
2022-07-29T22:19:20.847Z,30.09
2022-07-29T22:24:22.791Z,29.98
2022-07-29T22:29:26.907Z,29.81
2022-07-29T22:34:31.773Z,29.68
2022-07-29T22:39:40.308Z,29.59
2022-07-29T22:44:42.390Z,29.36
2022-07-29T22:49:44.368Z,29.28
2022-07-29T22:54:46.359Z,29.16
2022-07-29T22:59:48.297Z,28.90
2022-07-29T23:04:50.275Z,28.80
2022-07-29T23:09:52.153Z,28.61
2022-07-29T23:14:54.024Z,28.63
2022-07-29T23:19:55.900Z,28.50
2022-07-29T23:24:58.169Z,28.42
2022-07-29T23:30:00.125Z,28.39
2022-07-29T23:35:02.205Z,28.17
2022-07-29T23:40:05.594Z,28.17
2022-07-29T23:45:08.318Z,28.08
2022-07-29T23:50:14.055Z,27.98
2022-07-29T23:55:36.579Z,27.96
